Bookmark and Share
Track history (hours):
 

Carrier Princess

Last reported at 2014-Apr-24 21:33 UTC. Time now 2014-Apr-24 22:03 UTC.
Position N 49°06' W 123°08'.

Length 112 m; draft 3 m.

Type: Cargo ship. MMSI: 316003656.

NotesDate/timePositionNaut miles runAvg speedWind from/ knotsBaromVisibWave heightAir tempDewpointWater temp
2014-Apr-24 21:33N 49°06' W 123°08'8 8.4
2014-Apr-24 20:33N 49°03' W 123°20'1211.8
2014-Apr-24 19:33N 48°51' W 123°19'1110.7
2014-Apr-24 18:33N 48°41' W 123°24'0 0.0
2014-Apr-24 17:32N 48°41' W 123°24'0 0.0
2014-Apr-24 16:19N 48°41' W 123°24'0 0.0
2014-Apr-24 15:28N 48°41' W 123°24'0 0.0
2014-Apr-24 14:33N 48°41' W 123°24'0 0.0
2014-Apr-24 13:33N 48°41' W 123°24'0 0.0
2014-Apr-24 12:33N 48°41' W 123°24'4 3.7
2014-Apr-24 11:32N 48°45' W 123°23'1111.6
2014-Apr-24 10:33N 48°56' W 123°19'1212.4
2014-Apr-24 09:33N 49°08' W 123°13'7 7.3
2014-Apr-24 08:33N 49°09' W 123°02'0 0.0
2014-Apr-24 07:33N 49°09' W 123°02'6 5.5
2014-Apr-24 06:33N 49°07' W 123°10'1312.8
2014-Apr-24 05:33N 49°08' W 123°30'1413.8
2014-Apr-24 04:33N 49°13' W 123°49'5 3.6
2014-Apr-24 03:09N 49°10' W 123°56'0 0.4
2014-Apr-24 02:33N 49°10' W 123°55'10 9.9
2014-Apr-24 01:33N 49°12' W 123°41'1212.1
2014-Apr-24 00:33N 49°07' W 123°24'1313.0
2014-Apr-23 23:33N 49°08' W 123°04'2 1.5
2014-Apr-23 22:33N 49°09' W 123°02'6 5.7
2014-Apr-23 21:33N 49°07' W 123°10'8 8.4
2014-Apr-23 20:33N 49°01' W 123°20'1110.6
2014-Apr-23 19:31N 48°50' W 123°21'9 9.3
2014-Apr-23 18:33N 48°41' W 123°24'0 0.0
2014-Apr-23 17:31N 48°41' W 123°24'0 0.0
2014-Apr-23 16:33N 48°41' W 123°24'0 0.0
2014-Apr-23 15:33N 48°41' W 123°24'0 0.0
2014-Apr-23 14:33N 48°41' W 123°24'0 0.0
2014-Apr-23 13:31N 48°41' W 123°24'0 0.0
2014-Apr-23 12:33N 48°41' W 123°24'6 5.6
2014-Apr-23 11:33N 48°46' W 123°21'1211.9
2014-Apr-23 10:33N 48°58' W 123°19'1010.3
2014-Apr-23 09:33N 49°07' W 123°12'7 6.7
2014-Apr-23 08:34N 49°09' W 123°02'0 0.0
2014-Apr-23 07:34N 49°09' W 123°02'8 8.4
2014-Apr-23 06:34N 49°08' W 123°15'1211.7
2014-Apr-23 05:33N 49°09' W 123°33'1212.2
2014-Apr-23 04:33N 49°13' W 123°51'4 4.2
2014-Apr-23 03:33N 49°10' W 123°56'0 0.5
2014-Apr-23 02:33N 49°10' W 123°55'1110.7
2014-Apr-23 01:33N 49°13' W 123°39'1211.9
2014-Apr-23 00:33N 49°08' W 123°23'1313.1
2014-Apr-22 23:33N 49°08' W 123°03'1 0.7
2014-Apr-22 22:33N 49°09' W 123°02'5 5.3
2014-Apr-22 21:33N 49°07' W 123°10'8 8.3
2014-Apr-22 20:33N 49°01' W 123°19'1111.3
2014-Apr-22 19:33N 48°50' W 123°21'9 9.1
2014-Apr-22 18:33N 48°41' W 123°24'0 0.0
2014-Apr-22 17:33N 48°41' W 123°24'0 0.0
2014-Apr-22 16:33N 48°41' W 123°24'0 0.0
2014-Apr-22 15:33N 48°41' W 123°24'0 0.0
2014-Apr-22 14:33N 48°41' W 123°24'0 0.0
2014-Apr-22 13:33N 48°41' W 123°24'0 0.0
2014-Apr-22 12:33N 48°41' W 123°24'8 8.2
2014-Apr-22 11:33N 48°49' W 123°21'1110.8
2014-Apr-22 10:33N 48°60' W 123°20'10 9.6
2014-Apr-22 09:33N 49°07' W 123°10'6 5.5
2014-Apr-22 08:34N 49°09' W 123°02'0 0.0
2014-Apr-22 07:34N 49°09' W 123°02'9 8.9
2014-Apr-22 06:33N 49°07' W 123°16'1111.1
2014-Apr-22 05:33N 49°09' W 123°32'1111.5
2014-Apr-22 04:33N 49°13' W 123°49'5 5.4
2014-Apr-22 03:34N 49°10' W 123°56'0 0.1
2014-Apr-22 02:33N 49°10' W 123°56'9 9.5
2014-Apr-22 01:34N 49°12' W 123°42'1212.2
2014-Apr-22 00:34N 49°08' W 123°24'1313.1
2014-Apr-21 23:33N 49°07' W 123°04'2 2.0
2014-Apr-21 22:34N 49°09' W 123°02'0 0.1
2014-Apr-21 21:33N 49°09' W 123°02'0 0.2
2014-Apr-21 20:34N 49°09' W 123°02'0 0.0
2014-Apr-21 19:34N 49°09' W 123°02'0 0.0
2014-Apr-21 18:33N 49°09' W 123°02'0 0.0
2014-Apr-21 17:34N 49°09' W 123°02'0 0.0
2014-Apr-21 16:34N 49°09' W 123°02'0 0.0
2014-Apr-21 15:33N 49°09' W 123°02'0 0.0
2014-Apr-21 14:34N 49°09' W 123°02'0 0.0
2014-Apr-21 13:33N 49°09' W 123°02'0 0.0
2014-Apr-21 12:34N 49°09' W 123°02'0 0.0
2014-Apr-21 11:34N 49°09' W 123°02'0 0.0
2014-Apr-21 10:33N 49°09' W 123°02'0 0.0
2014-Apr-21 09:34N 49°09' W 123°02'0 0.0
2014-Apr-21 08:34N 49°09' W 123°02'0 0.0
2014-Apr-21 07:34N 49°09' W 123°02'0 0.0
2014-Apr-21 06:34N 49°09' W 123°02'0 0.0
2014-Apr-21 05:33N 49°09' W 123°02'0 0.0
2014-Apr-21 04:33N 49°09' W 123°02'0 0.0
2014-Apr-21 03:34N 49°09' W 123°02'0 0.0
2014-Apr-21 02:34N 49°09' W 123°02'0 0.0
2014-Apr-21 01:34N 49°09' W 123°02'0 0.0
2014-Apr-21 00:33N 49°09' W 123°02'0 0.0
2014-Apr-20 23:34N 49°09' W 123°02'0 0.0
2014-Apr-20 22:33N 49°09' W 123°02'0 0.0
2014-Apr-20 21:33N 49°09' W 123°02'0 0.0
2014-Apr-20 20:33N 49°09' W 123°02'0 0.0
2014-Apr-20 19:33N 49°09' W 123°02'0 0.0
2014-Apr-20 18:33N 49°09' W 123°02'0 0.0
2014-Apr-20 17:33N 49°09' W 123°02'0 0.0
2014-Apr-20 16:34N 49°09' W 123°02'0 0.0
2014-Apr-20 15:34N 49°09' W 123°02'4 4.2
2014-Apr-20 14:33N 49°06' W 123°08'10 9.7
2014-Apr-20 13:33N 49°01' W 123°20'1313.5
2014-Apr-20 12:33N 48°47' W 123°21'6 6.4
2014-Apr-20 11:33N 48°41' W 123°24'0 0.0
2014-Apr-20 10:33N 48°41' W 123°24'6 5.8
2014-Apr-20 09:33N 48°47' W 123°21'1010.2
2014-Apr-20 08:33N 48°57' W 123°18'1010.3
2014-Apr-20 07:33N 49°07' W 123°17'10 9.7
2014-Apr-20 06:33N 49°09' W 123°02'0 0.0
2014-Apr-20 05:33N 49°09' W 123°02'0 0.0
2014-Apr-20 04:33N 49°09' W 123°02'0 0.0
2014-Apr-20 03:33N 49°09' W 123°02'0 0.0
2014-Apr-20 02:33N 49°09' W 123°02'0 0.0
2014-Apr-20 01:33N 49°09' W 123°02'0 0.0
2014-Apr-20 00:33N 49°09' W 123°02'0 0.0
2014-Apr-19 23:33N 49°09' W 123°02'0 0.0
2014-Apr-19 22:33N 49°09' W 123°02'0 0.0
2014-Apr-19 21:33N 49°09' W 123°02'0 0.0
2014-Apr-19 20:33N 49°09' W 123°02'0 0.0
2014-Apr-19 19:33N 49°09' W 123°02'0 0.0
2014-Apr-19 18:33N 49°09' W 123°02'0 0.0
2014-Apr-19 17:33N 49°09' W 123°02'0 0.0
2014-Apr-19 16:33N 49°09' W 123°02'7 6.6
2014-Apr-19 15:33N 49°07' W 123°12'8 7.8
2014-Apr-19 14:33N 49°01' W 123°20'1010.0
2014-Apr-19 13:33N 48°51' W 123°19'10 9.9
2014-Apr-19 12:33N 48°42' W 123°24'1 0.7
2014-Apr-19 11:33N 48°41' W 123°24'0 0.0
2014-Apr-19 10:33N 48°41' W 123°24'7 7.5
2014-Apr-19 09:33N 48°48' W 123°21'1010.1
2014-Apr-19 08:33N 48°58' W 123°19'1010.1
2014-Apr-19 07:33N 49°08' W 123°14'8 7.6
2014-Apr-19 06:33N 49°09' W 123°02'0 0.0
2014-Apr-19 05:33N 49°09' W 123°02'0 0.0
2014-Apr-19 04:33N 49°09' W 123°02'0 0.0
2014-Apr-19 03:33N 49°09' W 123°02'0 0.0
2014-Apr-19 02:33N 49°09' W 123°02'0 0.0
2014-Apr-19 01:33N 49°09' W 123°02'0 0.0
2014-Apr-19 00:33N 49°09' W 123°02'0 0.0
2014-Apr-18 23:33N 49°09' W 123°02'0 0.0
2014-Apr-18 22:33N 49°09' W 123°02'0 0.0
2014-Apr-18 21:33N 49°09' W 123°02'2 1.8
2014-Apr-18 20:33N 49°08' W 123°04'10 9.9
2014-Apr-18 19:33N 49°06' W 123°19'1414.0
2014-Apr-18 18:33N 49°11' W 123°39'1111.0
2014-Apr-18 17:33N 49°10' W 123°56'0 0.1
2014-Apr-18 16:31N 49°10' W 123°56'0 0.0
2014-Apr-18 15:34N 49°10' W 123°56'0 0.0
2014-Apr-18 14:33N 49°10' W 123°56'0 0.0
2014-Apr-18 13:34N 49°10' W 123°56'0 0.0
2014-Apr-18 12:34N 49°10' W 123°56'0 0.0
2014-Apr-18 11:33N 49°10' W 123°56'1111.3
2014-Apr-18 10:33N 49°11' W 123°39'1717.1
2014-Apr-18 09:33N 49°08' W 123°13'7 7.3
2014-Apr-18 08:33N 49°09' W 123°02'0 0.0
2014-Apr-18 07:33N 49°09' W 123°02'6 5.6
2014-Apr-18 06:33N 49°07' W 123°10'1212.0
2014-Apr-18 05:33N 49°08' W 123°28'1313.5
2014-Apr-18 04:33N 49°13' W 123°48'6 6.1
2014-Apr-18 03:33N 49°10' W 123°56'0 0.0
2014-Apr-18 02:33N 49°10' W 123°56'1312.7
2014-Apr-18 01:34N 49°11' W 123°36'1413.8
2014-Apr-18 00:33N 49°07' W 123°16'9 9.4
2014-Apr-17 23:33N 49°09' W 123°02'0 0.0
2014-Apr-17 22:34N 49°09' W 123°02'6 6.0
2014-Apr-17 21:33N 49°07' W 123°11'9 8.7
2014-Apr-17 20:33N 49°00' W 123°19'1111.3
2014-Apr-17 19:33N 48°49' W 123°21'8 7.9
2014-Apr-17 18:33N 48°41' W 123°24'0 0.0
2014-Apr-17 17:33N 48°41' W 123°24'0 0.0
2014-Apr-17 16:33N 48°41' W 123°24'0 0.0
2014-Apr-17 15:33N 48°41' W 123°24'0 0.0
2014-Apr-17 14:33N 48°41' W 123°24'0 0.0
2014-Apr-17 13:33N 48°41' W 123°24'0 0.0
2014-Apr-17 12:33N 48°41' W 123°24'6 5.7
2014-Apr-17 11:33N 48°46' W 123°21'1212.4
2014-Apr-17 10:34N 48°59' W 123°20'1110.6
2014-Apr-17 09:33N 49°07' W 123°08'5 4.6
2014-Apr-17 08:33N 49°09' W 123°02'0 0.0
2014-Apr-17 07:33N 49°09' W 123°02'9 8.9
2014-Apr-17 06:34N 49°07' W 123°16'1212.0
2014-Apr-17 05:34N 49°10' W 123°34'1212.3
2014-Apr-17 04:33N 49°12' W 123°52'3 3.5
2014-Apr-17 03:33N 49°10' W 123°56'1 0.8
2014-Apr-17 02:33N 49°10' W 123°55'1111.4
2014-Apr-17 01:33N 49°11' W 123°37'1313.5
2014-Apr-17 00:33N 49°06' W 123°18'1110.7
2014-Apr-16 23:34N 49°09' W 123°02'0 0.0
2014-Apr-16 22:34N 49°09' W 123°02'6 5.6
2014-Apr-16 21:34N 49°07' W 123°10'8 8.2
2014-Apr-16 20:34N 49°01' W 123°19'1111.0
2014-Apr-16 19:33N 48°50' W 123°21'9 9.2
2014-Apr-16 18:33N 48°41' W 123°24'0 0.0
2014-Apr-16 17:33N 48°41' W 123°24'0 0.0
2014-Apr-16 16:33N 48°41' W 123°24'0 0.0
2014-Apr-16 15:33N 48°41' W 123°24'0 0.0
2014-Apr-16 14:33N 48°41' W 123°24'0 0.0
2014-Apr-16 13:33N 48°41' W 123°24'0 0.0
2014-Apr-16 12:33N 48°41' W 123°24'4 4.0
2014-Apr-16 11:33N 48°45' W 123°21'1212.1
2014-Apr-16 10:33N 48°57' W 123°19'1211.8
2014-Apr-16 09:33N 49°08' W 123°13'7 7.0
2014-Apr-16 08:34N 49°09' W 123°02'0 0.0
2014-Apr-16 07:33N 49°09' W 123°02'8 8.5
2014-Apr-16 06:34N 49°08' W 123°15'1110.7
2014-Apr-16 05:34N 49°09' W 123°31'1212.3
2014-Apr-16 04:33N 49°13' W 123°49'5 4.9
2014-Apr-16 03:26N 49°10' W 123°56'0 0.4
2014-Apr-16 02:34N 49°10' W 123°55'1211.8
2014-Apr-16 01:33N 49°11' W 123°37'1313.2
2014-Apr-16 00:33N 49°06' W 123°19'1111.0
2014-Apr-15 23:33N 49°09' W 123°02'0 0.2
2014-Apr-15 22:34N 49°09' W 123°02'6 5.8
2014-Apr-15 21:33N 49°07' W 123°11'8 8.4
2014-Apr-15 20:33N 49°01' W 123°19'1111.3
2014-Apr-15 19:33N 48°49' W 123°20'8 8.5
2014-Apr-15 18:33N 48°41' W 123°24'0 0.0
2014-Apr-15 17:33N 48°41' W 123°24'0 0.0
2014-Apr-15 16:33N 48°41' W 123°24'0 0.0
2014-Apr-15 15:33N 48°41' W 123°24'0 0.0
2014-Apr-15 14:33N 48°41' W 123°24'0 0.0
2014-Apr-15 12:34N 48°41' W 123°24'0 0.0
2014-Apr-15 11:34N 48°41' W 123°24'6 6.1
2014-Apr-15 10:34N 48°47' W 123°21'1413.8
2014-Apr-15 09:34N 49°01' W 123°20'1211.7
2014-Apr-15 08:34N 49°07' W 123°05'3 2.6
2014-Apr-15 07:34N 49°09' W 123°02'0 0.0
2014-Apr-15 06:34N 49°09' W 123°02'9 9.2
2014-Apr-15 05:34N 49°07' W 123°16'2512.4
2014-Apr-15 03:34N 49°12' W 123°53'2 2.2
2014-Apr-15 02:34N 49°10' W 123°56'1 0.7
2014-Apr-15 01:34N 49°10' W 123°55'1110.8
2014-Apr-15 00:34N 49°11' W 123°38'1312.7
2014-Apr-14 23:33N 49°06' W 123°20'1111.2
2014-Apr-14 22:34N 49°08' W 123°03'1 1.0
2014-Apr-14 21:34N 49°09' W 123°02'  

Dump ship's entire track history

sailing weather and tide predictions

Carrier Princess — CZ3582 — position and weather